Time;durP1;ratioP1;P1;durP2;ratioP2;P2;SDS_P1;SDS_P2;PMS_P1;PMS_P2;Temp;Humidity;BMP_temperature;BMP_pressure;BME280_temperature;BME280_humidity;BME280_pressure;Samples;Min_cycle;Max_cycle;Signal;HPM_P1;HPM_P2
2021/12/21 00:00:46;;;;;;;2.38;0.90;;;23.30;35.50;;;;;;5005564;28;20598;-45
2021/12/21 00:03:11;;;;;;;3.13;1.10;;;23.20;35.40;;;;;;5003696;28;20037;-45
2021/12/21 00:05:38;;;;;;;1.90;0.93;;;23.20;35.40;;;;;;5004274;28;20026;-45
2021/12/21 00:08:08;;;;;;;2.25;1.00;;;23.20;35.40;;;;;;5003244;28;20169;-45
2021/12/21 00:10:34;;;;;;;2.28;1.00;;;23.20;35.40;;;;;;5004151;28;20035;-45
2021/12/21 00:13:05;;;;;;;1.85;0.88;;;23.20;35.30;;;;;;5005517;28;20037;-44
2021/12/21 00:15:53;;;;;;;2.33;1.10;;;23.20;35.40;;;;;;5005505;28;20049;-45
2021/12/21 00:26:08;;;;;;;1.83;0.90;;;23.10;35.40;;;;;;5005126;28;20441;-45
2021/12/21 00:28:42;;;;;;;1.77;0.80;;;23.10;35.40;;;;;;5004822;28;20040;-46
2021/12/21 00:31:08;;;;;;;2.25;0.80;;;23.10;35.30;;;;;;5004682;28;20026;-45
2021/12/21 00:33:34;;;;;;;1.67;0.80;;;23.10;35.30;;;;;;5003652;28;20030;-45
2021/12/21 00:36:00;;;;;;;2.60;1.38;;;23.00;35.20;;;;;;5004757;28;20030;-45
2021/12/21 00:38:26;;;;;;;2.20;1.00;;;23.00;35.30;;;;;;5004348;28;20409;-45
2021/12/21 00:40:52;;;;;;;1.88;0.82;;;23.00;35.20;;;;;;5004928;28;20030;-45
2021/12/21 00:43:17;;;;;;;1.73;0.88;;;23.10;35.30;;;;;;5003844;28;20030;-45
2021/12/21 00:45:43;;;;;;;2.13;0.98;;;23.10;35.30;;;;;;5004387;28;20030;-45
2021/12/21 00:48:09;;;;;;;2.40;0.80;;;23.10;35.30;;;;;;5004666;28;20079;-45
2021/12/21 00:50:35;;;;;;;2.08;0.90;;;23.00;35.20;;;;;;5021004;28;20100;-45
2021/12/21 00:53:00;;;;;;;2.22;0.95;;;23.00;35.20;;;;;;5004853;28;20026;-45
2021/12/21 00:55:26;;;;;;;1.50;0.70;;;23.00;35.20;;;;;;5003856;28;20080;-45
2021/12/21 00:57:52;;;;;;;2.08;0.85;;;23.00;35.20;;;;;;5004338;28;20105;-45
2021/12/21 01:00:21;;;;;;;2.35;0.82;;;23.00;35.20;;;;;;5004705;28;20015;-45
2021/12/21 01:02:47;;;;;;;2.08;0.77;;;22.90;35.20;;;;;;5003547;28;20042;-45
2021/12/21 01:05:26;;;;;;;1.70;0.80;;;23.00;35.40;;;;;;5003760;28;20029;-45
2021/12/21 01:07:55;;;;;;;2.10;0.88;;;23.00;35.20;;;;;;5003606;28;20634;-46
2021/12/21 01:10:49;;;;;;;1.67;0.80;;;23.00;35.20;;;;;;5004008;28;20534;-44
2021/12/21 01:19:49;;;;;;;2.08;0.88;;;22.90;35.20;;;;;;5024083;28;20075;-45
2021/12/21 01:22:11;;;;;;;1.85;0.95;;;22.90;35.30;;;;;;5008424;28;20100;-45
2021/12/21 01:24:39;;;;;;;1.20;0.60;;;22.80;35.30;;;;;;5007899;28;20784;-45
2021/12/21 01:37:30;;;;;;;1.75;0.70;;;22.80;35.40;;;;;;5007808;28;20026;-44
2021/12/21 01:40:04;;;;;;;2.17;0.98;;;22.80;35.50;;;;;;5008605;28;20598;-45
2021/12/21 01:50:32;;;;;;;1.27;0.63;;;22.70;35.40;;;;;;5026907;28;20123;-44
2021/12/21 01:52:57;;;;;;;1.23;0.70;;;22.80;35.30;;;;;;5006981;28;20090;-45
2021/12/21 01:55:23;;;;;;;1.83;0.80;;;22.70;35.30;;;;;;5007823;28;20037;-45
2021/12/21 01:57:49;;;;;;;1.70;0.77;;;22.70;35.30;;;;;;5007678;28;20482;-45
2021/12/21 02:00:15;;;;;;;2.72;0.88;;;22.70;35.30;;;;;;5007208;28;20567;-44
2021/12/21 02:02:41;;;;;;;2.90;0.95;;;22.70;35.30;;;;;;5007104;28;20029;-45
2021/12/21 02:05:07;;;;;;;1.83;0.80;;;22.60;35.20;;;;;;5006646;28;20083;-44
2021/12/21 02:07:33;;;;;;;1.63;0.70;;;22.60;35.30;;;;;;5005899;28;20507;-45
2021/12/21 02:09:59;;;;;;;1.88;0.82;;;22.60;35.30;;;;;;5006303;28;20092;-45
2021/12/21 02:12:25;;;;;;;1.75;0.80;;;22.60;35.30;;;;;;5007204;28;20037;-45
2021/12/21 02:14:56;;;;;;;1.73;0.88;;;22.60;35.30;;;;;;5027144;28;20830;-44
2021/12/21 02:20:24;;;;;;;1.52;0.75;;;22.60;35.40;;;;;;5026778;28;20020;-45
2021/12/21 02:22:59;;;;;;;1.67;0.60;;;22.60;35.40;;;;;;5007252;28;20847;-45
2021/12/21 02:27:59;;;;;;;2.00;0.73;;;22.60;35.30;;;;;;5006187;28;20014;-45
2021/12/21 02:30:26;;;;;;;1.70;0.70;;;22.60;35.30;;;;;;5007729;28;20063;-45
2021/12/21 02:32:53;;;;;;;2.50;0.93;;;22.60;35.30;;;;;;5006718;28;20080;-45
2021/12/21 02:35:19;;;;;;;1.75;0.80;;;22.50;35.40;;;;;;5007295;28;20030;-45
2021/12/21 02:37:45;;;;;;;1.38;0.63;;;22.50;35.30;;;;;;5007076;28;20074;-44
2021/12/21 02:40:12;;;;;;;1.33;0.70;;;22.50;35.40;;;;;;5007061;28;20030;-45
2021/12/21 02:42:37;;;;;;;1.27;0.60;;;22.50;35.40;;;;;;5006836;28;20042;-45
2021/12/21 02:45:05;;;;;;;1.40;0.60;;;22.50;35.40;;;;;;5007254;28;20079;-44
2021/12/21 02:47:31;;;;;;;1.50;0.70;;;22.50;35.40;;;;;;5003042;28;20053;-45
2021/12/21 02:49:58;;;;;;;2.00;0.77;;;22.50;35.40;;;;;;5017649;28;20021;-46
2021/12/21 02:52:24;;;;;;;2.30;0.73;;;22.50;35.40;;;;;;5015303;28;20033;-45
2021/12/21 02:54:49;;;;;;;1.10;0.63;;;22.50;35.40;;;;;;5007091;28;20034;-45
2021/12/21 02:57:15;;;;;;;1.25;0.60;;;22.50;35.40;;;;;;5005465;28;20030;-45
2021/12/21 02:59:41;;;;;;;0.90;0.60;;;22.50;35.40;;;;;;5006916;28;20076;-45
2021/12/21 03:02:06;;;;;;;1.50;0.70;;;22.50;35.40;;;;;;5006549;28;20030;-45
2021/12/21 03:04:32;;;;;;;1.55;0.73;;;22.40;35.40;;;;;;5006451;28;20030;-45
2021/12/21 03:12:10;;;;;;;1.77;0.70;;;22.40;35.30;;;;;;5006561;28;20025;-45
2021/12/21 03:14:37;;;;;;;1.65;0.80;;;22.40;35.30;;;;;;5015259;28;20676;-44
2021/12/21 03:17:03;;;;;;;1.17;0.57;;;22.40;35.40;;;;;;5026460;28;20112;-44
2021/12/21 03:19:29;;;;;;;1.50;0.73;;;22.40;35.40;;;;;;5026019;28;20754;-45
2021/12/21 03:21:55;;;;;;;1.30;0.60;;;22.40;35.40;;;;;;5013420;28;20140;-45
2021/12/21 03:24:20;;;;;;;1.15;0.60;;;22.40;35.40;;;;;;5005970;28;20469;-45
2021/12/21 03:26:46;;;;;;;1.88;0.68;;;22.30;35.40;;;;;;5005885;28;20907;-45
2021/12/21 03:29:13;;;;;;;1.50;0.70;;;22.40;35.50;;;;;;5004310;28;20469;-45
2021/12/21 03:31:39;;;;;;;1.20;0.63;;;22.30;35.40;;;;;;5005106;28;20497;-45
2021/12/21 03:34:05;;;;;;;1.35;0.50;;;22.30;35.40;;;;;;5005929;28;20131;-45
2021/12/21 03:36:32;;;;;;;1.52;0.82;;;22.30;35.40;;;;;;5005960;28;20065;-45
2021/12/21 03:39:09;;;;;;;1.35;0.68;;;22.30;35.40;;;;;;5005863;28;20033;-45
2021/12/21 03:41:39;;;;;;;1.23;0.40;;;22.30;35.50;;;;;;5006148;28;20510;-45
2021/12/21 03:44:07;;;;;;;1.55;0.60;;;22.30;35.40;;;;;;5004302;28;20025;-44
2021/12/21 03:46:33;;;;;;;1.48;0.70;;;22.30;35.60;;;;;;5005319;28;20058;-45
2021/12/21 03:49:18;;;;;;;1.42;0.80;;;22.30;35.60;;;;;;5004916;28;20754;-45
2021/12/21 03:51:44;;;;;;;1.13;0.60;;;22.30;35.70;;;;;;5015638;28;20647;-45
2021/12/21 03:54:10;;;;;;;1.60;0.80;;;22.30;35.70;;;;;;5004330;28;20030;-44
2021/12/21 03:56:39;;;;;;;1.35;0.70;;;22.30;35.60;;;;;;5004590;28;20037;-45
2021/12/21 03:59:05;;;;;;;0.98;0.50;;;22.20;35.50;;;;;;5004670;28;20040;-45
2021/12/21 04:01:32;;;;;;;1.65;0.60;;;22.20;35.50;;;;;;5003479;28;20156;-45
2021/12/21 04:03:58;;;;;;;1.70;0.65;;;22.20;35.40;;;;;;5004797;28;20076;-45
2021/12/21 04:06:23;;;;;;;1.05;0.60;;;22.20;35.40;;;;;;5004992;28;20100;-44
2021/12/21 04:08:49;;;;;;;1.38;0.65;;;22.20;35.40;;;;;;5005099;28;20029;-45
2021/12/21 04:11:15;;;;;;;1.48;0.80;;;22.20;35.40;;;;;;5004945;28;20446;-45
2021/12/21 04:13:41;;;;;;;1.48;0.73;;;22.20;35.40;;;;;;5004347;28;20026;-45
2021/12/21 04:16:06;;;;;;;1.63;0.70;;;22.20;35.40;;;;;;5020657;28;20561;-45
2021/12/21 04:18:36;;;;;;;1.02;0.60;;;22.20;35.40;;;;;;5024654;28;20049;-45
2021/12/21 04:21:04;;;;;;;2.05;0.75;;;22.20;35.40;;;;;;5023638;28;20032;-45
2021/12/21 04:23:29;;;;;;;1.83;0.80;;;22.10;35.40;;;;;;5004141;28;20113;-44
2021/12/21 04:25:55;;;;;;;0.93;0.50;;;22.20;35.40;;;;;;5005120;28;20614;-45
2021/12/21 04:28:21;;;;;;;1.00;0.47;;;22.10;35.40;;;;;;5005097;28;20026;-44
2021/12/21 04:30:47;;;;;;;0.98;0.50;;;22.20;35.40;;;;;;5008626;28;20030;-45
2021/12/21 04:33:12;;;;;;;1.15;0.50;;;22.10;35.40;;;;;;5011822;28;20040;-45
2021/12/21 04:35:38;;;;;;;1.40;0.55;;;22.10;35.50;;;;;;5004669;28;20022;-45
2021/12/21 04:40:47;;;;;;;1.58;0.60;;;22.10;35.50;;;;;;5004775;28;20070;-44
2021/12/21 04:43:14;;;;;;;1.13;0.40;;;22.10;35.50;;;;;;5005918;28;20049;-44
2021/12/21 04:45:40;;;;;;;1.13;0.45;;;22.10;35.50;;;;;;5017063;28;20682;-44
2021/12/21 04:48:06;;;;;;;1.17;0.50;;;22.10;35.50;;;;;;5023321;28;20017;-44
2021/12/21 04:50:32;;;;;;;1.50;0.47;;;22.10;35.50;;;;;;5023069;28;20040;-45
2021/12/21 04:52:58;;;;;;;1.95;0.68;;;22.00;35.70;;;;;;5021727;28;20823;-44
2021/12/21 04:55:24;;;;;;;1.23;0.55;;;22.00;36.70;;;;;;5023583;28;20041;-45
2021/12/21 04:57:50;;;;;;;3.40;0.82;;;22.10;36.60;;;;;;5023351;28;20025;-45
2021/12/21 05:00:16;;;;;;;2.53;0.70;;;22.10;37.30;;;;;;5022315;28;20021;-46
2021/12/21 05:02:42;;;;;;;1.85;0.80;;;22.10;37.40;;;;;;5021763;28;20037;-44
2021/12/21 05:05:08;;;;;;;29.27;8.52;;;22.00;37.40;;;;;;5022494;28;20229;-45
2021/12/21 05:07:36;;;;;;;64.47;21.48;;;22.10;37.40;;;;;;5021811;28;20049;-45
2021/12/21 05:10:04;;;;;;;45.83;18.80;;;22.10;37.20;;;;;;5022837;28;20083;-46
2021/12/21 05:12:30;;;;;;;38.72;15.85;;;22.10;37.10;;;;;;5022989;28;20037;-45
2021/12/21 05:14:56;;;;;;;32.55;13.38;;;22.10;36.80;;;;;;5021712;28;20612;-45
2021/12/21 05:17:23;;;;;;;30.63;12.40;;;22.10;36.60;;;;;;5003450;28;20068;-45
2021/12/21 05:19:49;;;;;;;26.60;10.75;;;22.10;36.50;;;;;;5004353;28;20081;-45
2021/12/21 05:22:15;;;;;;;23.52;9.73;;;22.10;36.50;;;;;;5002540;28;20045;-45
2021/12/21 05:24:42;;;;;;;21.65;9.10;;;22.10;36.50;;;;;;5004809;28;20664;-46
2021/12/21 05:27:08;;;;;;;17.95;7.45;;;22.10;36.40;;;;;;5004504;28;20022;-45
2021/12/21 05:29:34;;;;;;;16.25;6.88;;;22.10;36.40;;;;;;5004398;28;20103;-45
2021/12/21 05:32:01;;;;;;;17.13;7.05;;;22.10;36.40;;;;;;5004523;28;20037;-45
2021/12/21 05:34:28;;;;;;;20.23;7.30;;;22.10;36.40;;;;;;5003920;28;20553;-45
2021/12/21 05:36:54;;;;;;;15.88;6.43;;;22.10;36.40;;;;;;5004297;28;20052;-45
2021/12/21 05:39:23;;;;;;;17.58;6.55;;;22.10;36.30;;;;;;5004225;28;20065;-45
2021/12/21 05:41:55;;;;;;;14.48;5.70;;;22.10;36.20;;;;;;5004488;28;20696;-45
2021/12/21 05:44:23;;;;;;;10.55;4.75;;;22.10;36.20;;;;;;5003505;28;20109;-45
2021/12/21 05:46:50;;;;;;;10.23;4.25;;;22.20;36.10;;;;;;5004130;28;20025;-45
2021/12/21 05:49:17;;;;;;;13.05;4.85;;;22.20;36.10;;;;;;5004257;28;20041;-45
2021/12/21 05:51:45;;;;;;;11.70;4.43;;;22.20;36.10;;;;;;5031814;28;20030;-45
2021/12/21 05:54:11;;;;;;;12.38;4.90;;;22.30;36.10;;;;;;5004165;28;20030;-45
2021/12/21 05:56:37;;;;;;;11.40;4.47;;;22.30;36.10;;;;;;5003957;28;20030;-45
2021/12/21 05:59:03;;;;;;;9.45;4.25;;;22.30;36.70;;;;;;5003893;28;20561;-52
2021/12/21 06:01:30;;;;;;;10.23;3.95;;;22.40;36.00;;;;;;5003351;28;20391;-45
2021/12/21 06:03:56;;;;;;;7.47;3.20;;;22.50;36.10;;;;;;5003792;28;20018;-45
2021/12/21 06:06:23;;;;;;;10.02;3.70;;;22.50;36.00;;;;;;5003633;28;20033;-45
2021/12/21 06:08:51;;;;;;;8.60;3.28;;;22.60;36.00;;;;;;5032512;28;20014;-45
2021/12/21 06:11:17;;;;;;;9.45;3.03;;;22.70;35.90;;;;;;5025205;28;20045;-47
2021/12/21 06:16:26;;;;;;;6.75;2.80;;;22.80;35.80;;;;;;5025485;28;20025;-45
2021/12/21 06:27:05;;;;;;;6.57;2.00;;;23.10;36.00;;;;;;5018811;28;20482;-45
2021/12/21 06:29:31;;;;;;;6.93;2.83;;;23.20;36.00;;;;;;5026947;28;20031;-46
2021/12/21 06:31:57;;;;;;;5.82;2.47;;;23.30;36.00;;;;;;5026967;28;20036;-46
2021/12/21 06:34:23;;;;;;;5.57;2.50;;;23.30;35.90;;;;;;5026541;28;20033;-45
2021/12/21 06:36:49;;;;;;;7.28;2.42;;;23.40;35.90;;;;;;5020850;28;20026;-45
2021/12/21 06:39:15;;;;;;;5.47;2.63;;;23.40;35.80;;;;;;5005918;28;20452;-45
2021/12/21 06:41:41;;;;;;;5.63;2.00;;;23.50;35.70;;;;;;5006649;28;20046;-45
2021/12/21 06:44:09;;;;;;;6.22;2.25;;;23.60;35.60;;;;;;5006707;28;20030;-45
2021/12/21 06:51:55;;;;;;;6.53;2.10;;;23.80;35.40;;;;;;5005750;28;20034;-46
2021/12/21 06:54:22;;;;;;;6.65;2.47;;;23.80;35.40;;;;;;5006268;28;20029;-46
2021/12/21 06:56:48;;;;;;;4.63;2.03;;;23.90;35.40;;;;;;5006232;28;20033;-46
2021/12/21 06:59:14;;;;;;;4.80;1.83;;;24.00;35.30;;;;;;5006942;28;20025;-46
2021/12/21 07:01:40;;;;;;;5.65;2.03;;;24.00;35.20;;;;;;5006716;28;20105;-46
2021/12/21 07:04:07;;;;;;;5.20;1.75;;;24.10;35.20;;;;;;5006158;28;20532;-45
2021/12/21 07:06:35;;;;;;;4.45;2.13;;;24.20;35.10;;;;;;5006725;28;20089;-46
2021/12/21 07:09:12;;;;;;;5.88;2.25;;;24.20;35.10;;;;;;5006229;28;20026;-44
2021/12/21 07:19:34;;;;;;;5.82;1.92;;;24.40;35.20;;;;;;5023959;28;20144;-45
2021/12/21 07:22:00;;;;;;;4.90;2.03;;;24.50;34.40;;;;;;5024367;28;20054;-45
2021/12/21 07:24:26;;;;;;;5.70;1.85;;;24.50;34.20;;;;;;5023605;28;20037;-44
2021/12/21 07:26:52;;;;;;;4.78;1.80;;;24.60;34.00;;;;;;5022733;28;20017;-44
2021/12/21 07:29:18;;;;;;;3.50;1.60;;;24.60;33.90;;;;;;5024570;28;20079;-46
2021/12/21 07:31:44;;;;;;;4.82;1.75;;;24.60;33.80;;;;;;5024811;28;20032;-44
2021/12/21 07:34:10;;;;;;;4.97;1.80;;;24.70;34.10;;;;;;5022739;28;20025;-45
2021/12/21 07:36:35;;;;;;;4.78;1.85;;;24.70;34.10;;;;;;5024039;28;20025;-45
2021/12/21 07:39:06;;;;;;;5.68;1.88;;;24.70;34.00;;;;;;5024167;28;20034;-44
2021/12/21 07:41:32;;;;;;;4.75;2.20;;;24.80;33.70;;;;;;5022824;28;20075;-44
2021/12/21 07:43:58;;;;;;;4.03;1.63;;;24.80;33.50;;;;;;5023851;28;20060;-44
2021/12/21 07:46:23;;;;;;;4.60;1.90;;;24.80;33.40;;;;;;5024770;28;20490;-45
2021/12/21 07:48:49;;;;;;;3.97;1.48;;;24.90;33.40;;;;;;5024591;28;20542;-46
2021/12/21 07:51:15;;;;;;;5.93;1.77;;;24.90;33.40;;;;;;5040551;28;20706;-44
2021/12/21 07:53:42;;;;;;;3.17;1.58;;;24.90;33.40;;;;;;5004527;28;20083;-45
2021/12/21 07:56:09;;;;;;;4.85;1.85;;;25.00;33.40;;;;;;5005463;28;20080;-45
2021/12/21 07:58:35;;;;;;;4.45;1.70;;;25.00;33.30;;;;;;5005057;28;20105;-44
2021/12/21 08:01:04;;;;;;;4.78;1.60;;;25.00;33.30;;;;;;5005668;28;20534;-44
2021/12/21 08:03:32;;;;;;;4.22;1.63;;;25.00;33.20;;;;;;5004755;28;20053;-44
2021/12/21 08:05:59;;;;;;;4.82;1.60;;;25.00;33.20;;;;;;5005356;28;20057;-44
2021/12/21 08:08:28;;;;;;;4.35;1.75;;;25.00;33.10;;;;;;5004843;28;20506;-44
2021/12/21 08:11:08;;;;;;;5.63;1.80;;;25.00;33.10;;;;;;5005061;28;20077;-44
2021/12/21 08:13:34;;;;;;;3.92;1.60;;;25.00;33.10;;;;;;5003406;28;20029;-45
2021/12/21 08:16:00;;;;;;;2.90;1.60;;;25.00;33.00;;;;;;5004643;28;20022;-44
2021/12/21 08:18:26;;;;;;;4.22;1.70;;;25.10;33.00;;;;;;5003841;28;20557;-44
2021/12/21 08:20:52;;;;;;;3.45;1.65;;;25.10;32.90;;;;;;5004704;28;20629;-45
2021/12/21 08:23:18;;;;;;;4.30;1.77;;;25.10;32.90;;;;;;5004394;28;20583;-44
2021/12/21 08:25:43;;;;;;;4.15;1.67;;;25.10;32.90;;;;;;5004584;28;20053;-44
2021/12/21 08:28:10;;;;;;;3.95;1.70;;;25.10;32.80;;;;;;5005001;28;20022;-45
2021/12/21 08:30:36;;;;;;;4.75;1.80;;;25.10;32.80;;;;;;5004346;28;20022;-44
2021/12/21 08:33:03;;;;;;;4.85;1.60;;;25.10;32.80;;;;;;5004317;28;20029;-45
2021/12/21 08:35:29;;;;;;;4.35;1.60;;;25.10;32.80;;;;;;5004873;28;20037;-44
2021/12/21 08:38:03;;;;;;;3.55;1.42;;;25.10;32.90;;;;;;5004231;28;20588;-45
2021/12/21 08:40:37;;;;;;;3.50;1.77;;;25.10;32.80;;;;;;5004423;28;20041;-44
2021/12/21 08:43:09;;;;;;;3.55;1.75;;;25.10;32.70;;;;;;5003426;28;20531;-44
2021/12/21 08:45:37;;;;;;;4.55;2.00;;;25.20;32.80;;;;;;5004431;28;20030;-44
2021/12/21 08:48:05;;;;;;;3.45;1.42;;;25.20;32.70;;;;;;5004735;28;20034;-44
2021/12/21 08:50:31;;;;;;;3.55;1.60;;;25.20;32.70;;;;;;5024077;28;20029;-45
2021/12/21 08:52:58;;;;;;;3.83;1.85;;;25.20;32.70;;;;;;5017679;28;20042;-45
2021/12/21 08:55:24;;;;;;;3.05;1.45;;;25.20;32.80;;;;;;5004361;28;20042;-44
2021/12/21 08:57:50;;;;;;;3.47;1.92;;;25.20;32.70;;;;;;5004754;28;20041;-44
2021/12/21 09:00:16;;;;;;;3.85;1.77;;;25.20;32.70;;;;;;5004582;28;20092;-44
2021/12/21 09:02:42;;;;;;;4.28;1.95;;;25.20;32.70;;;;;;5003739;28;20022;-44
2021/12/21 09:05:15;;;;;;;3.63;1.48;;;25.20;33.00;;;;;;5003969;28;20113;-45
2021/12/21 09:07:44;;;;;;;2.92;1.60;;;25.20;32.70;;;;;;5004427;28;20088;-48
2021/12/21 09:10:12;;;;;;;3.58;1.50;;;25.20;32.80;;;;;;5019425;28;20033;-44
2021/12/21 09:12:39;;;;;;;3.40;1.70;;;25.20;32.60;;;;;;5003433;28;20034;-44
2021/12/21 09:15:06;;;;;;;4.15;1.60;;;25.20;32.60;;;;;;5003870;28;20068;-44
2021/12/21 09:17:32;;;;;;;3.40;1.60;;;25.20;32.60;;;;;;5004054;28;20030;-44
2021/12/21 09:19:58;;;;;;;2.97;1.50;;;25.20;32.60;;;;;;5003895;28;20117;-44
2021/12/21 09:22:24;;;;;;;2.75;1.30;;;25.20;32.70;;;;;;5003545;28;20614;-44
2021/12/21 09:24:50;;;;;;;3.97;1.38;;;25.20;32.60;;;;;;5003888;28;20410;-44
2021/12/21 09:27:16;;;;;;;3.15;1.45;;;25.20;32.60;;;;;;5003862;28;20430;-44
2021/12/21 09:29:42;;;;;;;3.60;1.88;;;25.30;32.60;;;;;;5002580;28;20018;-44
2021/12/21 09:32:13;;;;;;;2.95;1.30;;;25.20;32.60;;;;;;5018448;28;20037;-44
2021/12/21 09:34:40;;;;;;;3.00;1.33;;;25.20;32.60;;;;;;5004433;28;20080;-44
2021/12/21 09:37:08;;;;;;;3.13;1.40;;;25.20;32.60;;;;;;5003414;28;20072;-44
2021/12/21 09:39:34;;;;;;;2.80;1.35;;;25.20;32.60;;;;;;5003958;28;20189;-44
2021/12/21 09:42:00;;;;;;;3.38;1.67;;;25.20;32.60;;;;;;5003487;28;20109;-44
2021/12/21 09:44:25;;;;;;;3.90;1.70;;;25.30;32.50;;;;;;5009941;28;20478;-44
2021/12/21 09:46:51;;;;;;;3.63;1.77;;;25.20;32.60;;;;;;5027515;28;20056;-44
2021/12/21 09:49:17;;;;;;;3.00;1.42;;;25.20;32.50;;;;;;5027057;28;20039;-45
2021/12/21 09:51:43;;;;;;;4.35;1.42;;;25.30;32.50;;;;;;5043294;28;20090;-44
2021/12/21 09:54:09;;;;;;;2.85;1.42;;;25.20;32.60;;;;;;5006840;28;20101;-44
2021/12/21 09:56:35;;;;;;;2.95;1.58;;;25.20;32.50;;;;;;5006310;28;20117;-44
2021/12/21 09:59:02;;;;;;;3.35;1.67;;;25.20;32.50;;;;;;5007140;28;20067;-45
2021/12/21 10:01:28;;;;;;;3.10;1.48;;;25.20;32.50;;;;;;5007421;28;20053;-44
2021/12/21 10:03:53;;;;;;;2.95;1.40;;;25.20;32.50;;;;;;5005535;28;20029;-44
2021/12/21 10:06:19;;;;;;;3.72;1.58;;;25.20;32.60;;;;;;5007670;28;20022;-45
2021/12/21 10:08:45;;;;;;;2.47;1.30;;;25.30;32.50;;;;;;5006738;28;20367;-44
2021/12/21 10:11:22;;;;;;;2.92;1.30;;;25.20;32.60;;;;;;5007251;28;20054;-44
2021/12/21 10:13:49;;;;;;;2.67;1.13;;;25.20;32.60;;;;;;5006740;28;20034;-44
2021/12/21 10:16:20;;;;;;;2.40;1.23;;;25.20;32.60;;;;;;5006724;28;20036;-45
2021/12/21 10:18:46;;;;;;;3.17;1.40;;;25.30;32.70;;;;;;5006996;28;20133;-44
2021/12/21 10:21:14;;;;;;;2.50;1.20;;;25.20;32.50;;;;;;5006763;28;20042;-43
2021/12/21 10:23:54;;;;;;;2.67;1.30;;;25.30;32.60;;;;;;5006461;28;20623;-44
2021/12/21 10:26:23;;;;;;;2.53;1.17;;;25.30;32.70;;;;;;5021751;28;20049;-44
2021/12/21 10:29:06;;;;;;;2.85;1.35;;;25.30;32.50;;;;;;5006670;28;20029;-44
2021/12/21 10:31:39;;;;;;;3.17;1.52;;;25.20;32.60;;;;;;5006408;28;20036;-44
2021/12/21 10:34:10;;;;;;;2.83;1.42;;;25.30;32.50;;;;;;5006469;28;20034;-44
2021/12/21 10:36:43;;;;;;;3.40;1.50;;;25.20;32.50;;;;;;5006615;28;20030;-45
2021/12/21 10:39:09;;;;;;;3.15;1.30;;;25.20;32.60;;;;;;5006768;28;20048;-44
2021/12/21 10:41:42;;;;;;;3.03;1.40;;;25.20;32.60;;;;;;5006999;28;20394;-44
2021/12/21 10:44:16;;;;;;;2.67;1.35;;;25.30;32.50;;;;;;5006442;28;20101;-45
2021/12/21 10:46:44;;;;;;;2.38;1.17;;;25.30;32.60;;;;;;5010124;28;20033;-44
2021/12/21 10:49:21;;;;;;;2.47;1.33;;;25.30;32.60;;;;;;5006143;28;20037;-44
2021/12/21 10:52:05;;;;;;;4.03;1.27;;;25.30;32.60;;;;;;5006547;28;20092;-45
2021/12/21 10:54:41;;;;;;;3.53;1.38;;;25.30;32.60;;;;;;5005827;28;20113;-44
2021/12/21 10:57:18;;;;;;;2.70;1.38;;;25.30;32.70;;;;;;5006420;28;20034;-45
2021/12/21 10:59:47;;;;;;;2.70;1.40;;;25.30;32.60;;;;;;5006236;28;20040;-44
2021/12/21 11:02:18;;;;;;;2.45;1.15;;;25.30;32.60;;;;;;5005114;28;20092;-44
2021/12/21 11:04:54;;;;;;;2.40;1.20;;;25.30;32.70;;;;;;5005635;28;20026;-44
2021/12/21 11:10:14;;;;;;;2.38;1.13;;;25.30;32.60;;;;;;5006278;28;20037;-44
2021/12/21 11:12:49;;;;;;;2.67;1.20;;;25.30;32.70;;;;;;5005468;28;20113;-45
2021/12/21 11:15:18;;;;;;;2.25;1.10;;;25.30;32.70;;;;;;5005318;28;20200;-45
2021/12/21 11:17:44;;;;;;;2.65;1.13;;;25.30;32.70;;;;;;5005795;28;20038;-44
2021/12/21 11:20:13;;;;;;;2.90;1.30;;;25.30;32.70;;;;;;5006024;28;20034;-44
2021/12/21 11:22:41;;;;;;;2.40;1.10;;;25.30;32.70;;;;;;5004780;28;20490;-44
2021/12/21 11:25:09;;;;;;;2.22;1.23;;;25.30;32.70;;;;;;5006287;28;20466;-45
2021/12/21 11:27:37;;;;;;;2.60;0.98;;;25.30;32.70;;;;;;5005773;28;20022;-44
2021/12/21 11:30:07;;;;;;;1.48;0.73;;;25.30;32.70;;;;;;5006218;28;20100;-44
2021/12/21 11:32:44;;;;;;;2.47;1.02;;;25.30;32.70;;;;;;5005471;28;20087;-45
2021/12/21 11:37:47;;;;;;;2.28;1.00;;;25.30;32.70;;;;;;5005359;28;20029;-44
2021/12/21 11:40:17;;;;;;;2.47;1.05;;;25.30;32.70;;;;;;5005777;28;20176;-45
2021/12/21 11:42:52;;;;;;;2.83;1.23;;;25.40;32.60;;;;;;5005204;28;20433;-45
2021/12/21 11:45:32;;;;;;;2.90;1.15;;;25.30;32.60;;;;;;5005455;28;20382;-44
2021/12/21 11:48:00;;;;;;;1.77;0.90;;;25.40;32.70;;;;;;5024077;28;20037;-44
2021/12/21 11:50:27;;;;;;;2.03;0.95;;;25.30;32.60;;;;;;5034494;28;20021;-44
2021/12/21 11:52:59;;;;;;;2.33;1.15;;;25.40;32.60;;;;;;5025787;28;20052;-45
2021/12/21 11:55:26;;;;;;;2.05;1.00;;;25.40;32.60;;;;;;5005395;28;20029;-44
2021/12/21 11:57:59;;;;;;;2.40;0.90;;;25.40;32.60;;;;;;5005044;28;20030;-44
2021/12/21 12:00:29;;;;;;;2.60;1.20;;;25.30;32.50;;;;;;5005285;28;20670;-44
2021/12/21 12:03:08;;;;;;;2.13;1.02;;;25.30;32.60;;;;;;5003511;28;20033;-44
2021/12/21 12:05:34;;;;;;;2.08;0.93;;;25.30;32.60;;;;;;5004694;28;20105;-44
2021/12/21 12:08:09;;;;;;;2.67;1.00;;;25.30;32.50;;;;;;5002905;28;20113;-44
2021/12/21 12:10:38;;;;;;;1.70;0.90;;;25.30;32.50;;;;;;5005201;28;20657;-45
2021/12/21 12:13:15;;;;;;;2.33;1.05;;;25.30;33.10;;;;;;5004714;28;20030;-45
2021/12/21 12:15:44;;;;;;;2.17;1.08;;;25.30;32.50;;;;;;5004959;28;20060;-44
2021/12/21 12:18:19;;;;;;;2.40;1.13;;;25.30;32.40;;;;;;5004901;28;20097;-48
2021/12/21 12:20:45;;;;;;;2.58;1.23;;;25.30;32.50;;;;;;5005032;28;20749;-45
2021/12/21 12:23:12;;;;;;;3.00;1.40;;;25.30;32.50;;;;;;5004306;28;20048;-45
2021/12/21 12:25:50;;;;;;;2.00;0.93;;;25.30;32.50;;;;;;5005386;28;20018;-44
2021/12/21 12:28:27;;;;;;;2.13;1.10;;;25.30;32.60;;;;;;5004873;28;20026;-45
2021/12/21 12:30:54;;;;;;;1.55;0.90;;;25.30;32.50;;;;;;5004829;28;20030;-44
2021/12/21 12:33:20;;;;;;;2.00;1.10;;;25.30;32.50;;;;;;5004245;28;20026;-44
2021/12/21 12:35:46;;;;;;;2.75;1.25;;;25.30;32.50;;;;;;5004937;28;20030;-45
2021/12/21 12:38:12;;;;;;;2.83;1.10;;;25.30;32.50;;;;;;5004264;28;20061;-44
2021/12/21 12:40:58;;;;;;;3.30;1.30;;;25.30;32.50;;;;;;5005163;28;20060;-45
2021/12/21 12:43:30;;;;;;;2.70;1.10;;;25.30;32.50;;;;;;5003734;28;20034;-44
2021/12/21 12:46:04;;;;;;;2.45;1.10;;;25.30;32.50;;;;;;5005289;28;20025;-45
2021/12/21 12:48:41;;;;;;;2.78;1.30;;;25.40;32.50;;;;;;5021193;28;20091;-44
2021/12/21 12:51:08;;;;;;;2.78;1.38;;;25.30;32.40;;;;;;5038349;28;20104;-44
2021/12/21 12:53:40;;;;;;;2.85;1.50;;;25.30;32.50;;;;;;5015996;28;20114;-44
2021/12/21 12:56:07;;;;;;;3.10;1.63;;;25.30;32.40;;;;;;5003925;28;20018;-44
2021/12/21 12:58:35;;;;;;;3.60;1.58;;;25.40;32.50;;;;;;5004365;28;20057;-45
2021/12/21 13:01:03;;;;;;;2.55;1.33;;;25.30;32.40;;;;;;5003937;28;20061;-44
2021/12/21 13:03:40;;;;;;;2.95;1.50;;;25.40;32.40;;;;;;5003962;28;20022;-44
2021/12/21 13:06:21;;;;;;;2.25;1.20;;;25.40;32.40;;;;;;5004246;28;20072;-44
2021/12/21 13:08:47;;;;;;;2.90;1.83;;;25.40;32.40;;;;;;5003929;28;20030;-44
2021/12/21 13:11:17;;;;;;;3.78;1.42;;;25.40;32.30;;;;;;5004414;28;20521;-45
2021/12/21 13:13:46;;;;;;;3.22;1.55;;;25.40;32.30;;;;;;5003621;28;20034;-45
2021/12/21 13:16:25;;;;;;;3.03;1.52;;;25.40;32.30;;;;;;5003568;28;20026;-44
2021/12/21 13:18:54;;;;;;;3.55;1.23;;;25.40;32.30;;;;;;5007418;28;20045;-45
2021/12/21 13:21:29;;;;;;;2.90;1.23;;;25.40;32.20;;;;;;5008455;28;20436;-45
2021/12/21 13:24:03;;;;;;;2.38;1.20;;;25.40;32.20;;;;;;5007918;28;20022;-45
2021/12/21 13:26:39;;;;;;;4.07;1.50;;;25.40;32.30;;;;;;5007913;28;20059;-45
2021/12/21 13:29:07;;;;;;;2.53;1.40;;;25.40;32.20;;;;;;5008021;28;20033;-45
2021/12/21 13:31:35;;;;;;;3.22;1.48;;;25.50;32.20;;;;;;5008552;28;20038;-44
2021/12/21 13:34:02;;;;;;;3.65;1.65;;;25.40;32.10;;;;;;5007625;28;20725;-44
2021/12/21 13:36:35;;;;;;;3.05;1.33;;;25.40;32.10;;;;;;5008539;28;20034;-44
2021/12/21 13:39:23;;;;;;;2.90;1.55;;;25.40;32.20;;;;;;5007901;28;20030;-45
2021/12/21 13:42:02;;;;;;;2.55;1.25;;;25.40;32.20;;;;;;5008222;28;20602;-45
2021/12/21 13:44:32;;;;;;;2.42;1.15;;;25.40;32.30;;;;;;5008324;28;20030;-45
2021/12/21 13:47:02;;;;;;;2.47;1.13;;;25.40;32.80;;;;;;5007572;28;20497;-44
2021/12/21 13:49:28;;;;;;;2.88;1.35;;;25.40;32.10;;;;;;5027437;28;20032;-44
2021/12/21 13:51:58;;;;;;;5.53;1.38;;;25.40;32.20;;;;;;5048019;28;20058;-44
2021/12/21 13:54:26;;;;;;;2.80;1.27;;;25.40;32.20;;;;;;5008113;28;20034;-45
2021/12/21 13:56:52;;;;;;;2.70;1.27;;;25.40;32.10;;;;;;5007392;28;20402;-44
2021/12/21 13:59:19;;;;;;;2.78;1.23;;;25.40;32.20;;;;;;5008116;28;20026;-45
2021/12/21 14:01:47;;;;;;;2.65;1.13;;;25.40;32.20;;;;;;5007516;28;20787;-44
2021/12/21 14:04:16;;;;;;;2.80;1.10;;;25.50;32.30;;;;;;5006127;28;20049;-44
2021/12/21 14:06:45;;;;;;;2.47;1.40;;;25.40;32.80;;;;;;5007639;28;20026;-44